createdAt,value
2023-01-17T00:01:30.153Z,78.92
2023-01-17T00:04:14.927Z,78.04
2023-01-17T00:06:59.689Z,78.37
2023-01-17T00:09:44.618Z,78.94
2023-01-17T00:12:11.040Z,78.66
2023-01-17T00:14:37.363Z,79.36
2023-01-17T00:17:03.725Z,79.33
2023-01-17T00:19:48.534Z,78.60
2023-01-17T00:22:47.637Z,78.66
2023-01-17T00:25:38.846Z,78.31
2023-01-17T00:28:06.167Z,78.34
2023-01-17T00:30:32.777Z,78.52
2023-01-17T00:32:59.528Z,78.31
2023-01-17T00:35:27.344Z,78.08
2023-01-17T00:38:09.768Z,78.31
2023-01-17T00:40:38.575Z,78.62
2023-01-17T00:43:24.627Z,78.00
2023-01-17T00:46:10.552Z,77.59
2023-01-17T00:48:56.580Z,77.72
2023-01-17T00:51:42.460Z,77.49
2023-01-17T00:54:28.107Z,77.23
2023-01-17T00:57:13.731Z,77.09
2023-01-17T00:59:59.081Z,76.60
2023-01-17T01:02:44.849Z,77.40
2023-01-17T01:05:30.817Z,77.87
2023-01-17T01:08:15.779Z,77.14
2023-01-17T01:11:02.135Z,78.12
2023-01-17T01:13:49.924Z,78.32
2023-01-17T01:16:35.773Z,78.54
2023-01-17T01:19:22.440Z,78.15
2023-01-17T01:25:10.356Z,78.42
2023-01-17T01:27:55.382Z,79.19
2023-01-17T01:30:40.605Z,79.17
2023-01-17T01:33:20.892Z,79.83
2023-01-17T01:35:53.713Z,79.13
2023-01-17T01:38:22.835Z,79.67
2023-01-17T01:40:52.081Z,79.66
2023-01-17T01:43:21.429Z,79.59
2023-01-17T01:45:57.008Z,78.67
2023-01-17T01:48:36.813Z,78.69
2023-01-17T01:51:08.204Z,78.17
2023-01-17T01:53:37.171Z,77.26
2023-01-17T01:56:08.577Z,77.29
2023-01-17T01:58:37.758Z,78.13
2023-01-17T02:01:06.158Z,77.67
2023-01-17T02:03:33.502Z,78.25
2023-01-17T02:06:08.586Z,77.79
2023-01-17T02:08:35.860Z,77.57
2023-01-17T02:11:02.908Z,76.03
2023-01-17T02:13:29.389Z,76.42
2023-01-17T02:16:11.000Z,75.36
2023-01-17T02:18:46.382Z,74.99
2023-01-17T02:21:18.810Z,76.89
2023-01-17T02:23:53.784Z,76.88
2023-01-17T02:26:38.819Z,75.93
2023-01-17T02:29:52.920Z,75.85
2023-01-17T02:32:44.055Z,75.13
2023-01-17T02:35:56.982Z,73.52
2023-01-17T02:38:53.834Z,73.58
2023-01-17T02:41:30.001Z,72.40
2023-01-17T02:43:56.637Z,73.07
2023-01-17T02:46:23.096Z,72.92
2023-01-17T02:48:51.473Z,72.51
2023-01-17T02:51:47.607Z,71.40
2023-01-17T02:54:31.789Z,71.28
2023-01-17T02:57:06.525Z,73.11
2023-01-17T02:59:50.864Z,74.35
2023-01-17T03:02:20.349Z,73.89
2023-01-17T03:04:58.452Z,73.48
2023-01-17T03:07:27.271Z,72.34
2023-01-17T03:09:59.723Z,72.55
2023-01-17T03:12:30.950Z,71.61
2023-01-17T03:14:57.697Z,73.81
2023-01-17T03:17:26.507Z,75.24
2023-01-17T03:19:52.825Z,74.38
2023-01-17T03:22:19.143Z,73.78
2023-01-17T03:24:45.469Z,73.06
2023-01-17T03:27:11.876Z,71.80
2023-01-17T03:29:38.222Z,71.07
2023-01-17T03:32:04.834Z,71.65
2023-01-17T03:34:31.350Z,73.12
2023-01-17T03:36:57.741Z,73.32
2023-01-17T03:39:24.078Z,72.81
2023-01-17T03:41:50.412Z,72.22
2023-01-17T03:44:16.754Z,71.88
2023-01-17T03:46:43.096Z,72.09
2023-01-17T03:49:09.497Z,71.99
2023-01-17T03:51:35.840Z,73.04
2023-01-17T03:54:02.173Z,72.39
2023-01-17T03:56:28.500Z,73.10
2023-01-17T03:58:54.954Z,73.04
2023-01-17T04:01:21.340Z,72.51
2023-01-17T04:03:47.739Z,72.62
2023-01-17T04:06:14.061Z,72.04
2023-01-17T04:08:40.400Z,71.53
2023-01-17T04:11:06.754Z,70.74
2023-01-17T04:13:33.241Z,71.24
2023-01-17T04:15:59.676Z,70.70
2023-01-17T04:18:26.352Z,70.44
2023-01-17T04:20:52.673Z,70.44
2023-01-17T04:23:19.166Z,69.42
2023-01-17T04:25:45.870Z,69.04
2023-01-17T04:28:12.726Z,69.47
2023-01-17T04:30:39.364Z,69.25
2023-01-17T04:33:05.912Z,68.62
2023-01-17T04:35:33.456Z,69.00
2023-01-17T04:38:00.323Z,69.17
2023-01-17T04:40:26.852Z,68.76
2023-01-17T04:42:54.200Z,68.88
2023-01-17T04:45:20.535Z,68.37
2023-01-17T04:47:46.912Z,67.94
2023-01-17T04:50:13.419Z,68.16
2023-01-17T04:52:39.756Z,68.70
2023-01-17T04:55:06.782Z,67.80
2023-01-17T04:57:33.123Z,67.61
2023-01-17T04:59:59.563Z,68.00
2023-01-17T05:02:26.000Z,67.97
2023-01-17T05:04:52.368Z,67.85
2023-01-17T05:07:18.699Z,67.76
2023-01-17T05:09:45.017Z,67.99
2023-01-17T05:12:11.346Z,68.06
2023-01-17T05:14:37.672Z,68.60
2023-01-17T05:17:04.053Z,68.66
2023-01-17T05:19:30.706Z,68.88
2023-01-17T05:22:03.596Z,68.29
2023-01-17T05:24:31.304Z,68.32
2023-01-17T05:27:02.809Z,68.30
2023-01-17T05:29:30.319Z,68.29
2023-01-17T05:31:56.720Z,67.95
2023-01-17T05:34:23.143Z,67.96
2023-01-17T05:36:49.673Z,68.36
2023-01-17T05:39:15.990Z,68.02
2023-01-17T05:41:42.319Z,67.90
2023-01-17T05:44:08.791Z,67.89
2023-01-17T05:46:35.199Z,67.89
2023-01-17T05:49:01.628Z,67.97
2023-01-17T05:51:29.224Z,67.99
2023-01-17T05:53:55.563Z,68.58
2023-01-17T05:56:22.292Z,67.96
2023-01-17T05:58:48.635Z,67.96
2023-01-17T06:01:15.021Z,68.06
2023-01-17T06:03:41.369Z,67.74
2023-01-17T06:06:07.755Z,67.85
2023-01-17T06:08:34.107Z,68.01
2023-01-17T06:11:00.485Z,68.40
2023-01-17T06:13:26.813Z,68.70
2023-01-17T06:15:53.315Z,68.72
2023-01-17T06:18:19.696Z,68.33
2023-01-17T06:20:46.093Z,68.23
2023-01-17T06:23:14.079Z,68.55
2023-01-17T06:25:45.426Z,68.05
2023-01-17T06:28:14.288Z,68.55
2023-01-17T06:30:40.855Z,68.80
2023-01-17T06:33:07.267Z,68.46
2023-01-17T06:35:33.754Z,69.06
2023-01-17T06:38:00.379Z,69.07
2023-01-17T06:40:30.540Z,68.43
2023-01-17T06:43:04.217Z,68.53
2023-01-17T06:45:32.031Z,68.45
2023-01-17T06:48:00.567Z,68.17
2023-01-17T06:50:27.292Z,68.40
2023-01-17T06:53:00.155Z,68.10
2023-01-17T06:55:30.506Z,68.18
2023-01-17T06:57:59.393Z,68.05
2023-01-17T07:00:26.875Z,68.10
2023-01-17T07:02:53.423Z,68.06
2023-01-17T07:05:20.348Z,68.55
2023-01-17T07:07:46.900Z,68.88
2023-01-17T07:10:14.585Z,69.33
2023-01-17T07:12:40.976Z,70.91
2023-01-17T07:15:08.358Z,71.98
2023-01-17T07:17:35.077Z,72.19
2023-01-17T07:20:01.425Z,71.55
2023-01-17T07:22:27.744Z,71.37
2023-01-17T07:24:58.319Z,71.37
2023-01-17T07:27:25.720Z,70.41
2023-01-17T07:29:54.123Z,70.47
2023-01-17T07:32:20.677Z,70.72
2023-01-17T07:34:47.047Z,70.16
2023-01-17T07:37:15.189Z,70.52
2023-01-17T07:39:41.900Z,70.33
2023-01-17T07:42:09.030Z,69.67
2023-01-17T07:44:35.349Z,69.94
2023-01-17T07:47:01.716Z,69.59
2023-01-17T07:49:28.072Z,69.21
2023-01-17T07:51:55.157Z,69.37
2023-01-17T07:54:21.634Z,69.73
2023-01-17T07:56:47.948Z,69.72
2023-01-17T07:59:14.266Z,69.06
2023-01-17T08:01:40.672Z,69.72
2023-01-17T08:04:07.238Z,69.63
2023-01-17T08:06:33.642Z,69.54
2023-01-17T08:08:59.972Z,69.32
2023-01-17T08:11:26.630Z,69.21
2023-01-17T08:13:59.996Z,69.09
2023-01-17T08:16:28.425Z,69.22
2023-01-17T08:18:55.633Z,68.77
2023-01-17T08:21:22.615Z,68.69
2023-01-17T08:23:50.332Z,68.62
2023-01-17T08:26:24.181Z,68.55
2023-01-17T08:29:00.264Z,68.71
2023-01-17T08:31:28.353Z,68.49
2023-01-17T08:33:54.811Z,68.89
2023-01-17T08:36:21.183Z,69.12
2023-01-17T08:38:50.770Z,69.35
2023-01-17T08:41:17.083Z,69.16
2023-01-17T08:43:43.641Z,69.62
2023-01-17T08:46:10.020Z,69.74
2023-01-17T08:48:36.392Z,69.67
2023-01-17T08:51:02.795Z,70.24
2023-01-17T08:53:29.164Z,69.85
2023-01-17T08:56:00.595Z,69.96
2023-01-17T08:58:30.576Z,70.29
2023-01-17T09:01:05.488Z,70.08
2023-01-17T09:03:33.027Z,70.02
2023-01-17T09:06:07.980Z,70.36
2023-01-17T09:08:34.937Z,69.68
2023-01-17T09:11:06.558Z,70.08
2023-01-17T09:13:32.915Z,69.34
2023-01-17T09:16:00.110Z,70.11
2023-01-17T09:18:27.574Z,69.26
2023-01-17T09:20:55.124Z,69.03
2023-01-17T09:23:22.729Z,68.90
2023-01-17T09:25:56.235Z,69.11
2023-01-17T09:28:23.559Z,68.73
2023-01-17T09:30:50.664Z,68.77
2023-01-17T09:33:17.653Z,68.70
2023-01-17T09:35:45.101Z,69.48
2023-01-17T09:38:12.257Z,68.98
2023-01-17T09:40:44.148Z,69.19
2023-01-17T09:43:30.462Z,69.02
2023-01-17T09:45:57.034Z,68.49
2023-01-17T09:48:37.381Z,68.31
2023-01-17T09:51:12.308Z,68.32
2023-01-17T09:53:41.445Z,67.94
2023-01-17T09:56:14.260Z,67.66
2023-01-17T09:58:52.587Z,67.22
2023-01-17T10:01:22.149Z,67.11
2023-01-17T10:04:03.674Z,67.46
2023-01-17T10:06:51.887Z,68.89
2023-01-17T10:09:37.470Z,70.49
2023-01-17T10:12:29.356Z,69.84
2023-01-17T10:15:31.270Z,70.56
2023-01-17T10:18:35.330Z,70.61
2023-01-17T10:21:07.746Z,70.15
2023-01-17T10:23:39.996Z,70.83
2023-01-17T10:26:18.492Z,70.56
2023-01-17T10:28:48.703Z,70.25
2023-01-17T10:31:22.969Z,69.88
2023-01-17T10:33:57.607Z,69.89
2023-01-17T10:36:27.040Z,69.38
2023-01-17T10:39:01.821Z,69.28
2023-01-17T10:41:40.136Z,69.40
2023-01-17T10:44:25.015Z,68.84
2023-01-17T10:46:54.400Z,69.02
2023-01-17T10:49:26.130Z,70.38
2023-01-17T10:52:21.974Z,70.33
2023-01-17T10:54:53.396Z,70.57
2023-01-17T10:57:25.058Z,69.99
2023-01-17T10:59:52.360Z,70.06
2023-01-17T11:02:30.197Z,69.51
2023-01-17T11:05:00.928Z,69.78
2023-01-17T11:07:28.747Z,70.19
2023-01-17T11:09:57.065Z,69.89
2023-01-17T11:12:40.009Z,69.26
2023-01-17T11:15:09.148Z,69.82
2023-01-17T11:17:38.572Z,69.05
2023-01-17T11:20:32.597Z,69.05
2023-01-17T11:23:14.347Z,68.79
2023-01-17T11:26:05.958Z,68.89
2023-01-17T11:28:34.781Z,68.77
2023-01-17T11:31:05.022Z,68.62
2023-01-17T11:33:45.871Z,69.26
2023-01-17T11:36:38.277Z,68.69
2023-01-17T11:39:21.163Z,68.82
2023-01-17T11:41:47.971Z,69.08
2023-01-17T11:44:28.149Z,69.32
2023-01-17T11:47:19.086Z,69.34
2023-01-17T11:49:47.809Z,69.89
2023-01-17T11:52:26.060Z,70.13
2023-01-17T11:54:55.118Z,69.85
2023-01-17T11:57:32.115Z,69.91
2023-01-17T12:00:23.071Z,70.22
2023-01-17T12:03:08.191Z,69.77
2023-01-17T12:05:53.550Z,70.32
2023-01-17T12:08:28.023Z,69.61
2023-01-17T12:11:02.951Z,70.08
2023-01-17T12:14:17.639Z,69.78
2023-01-17T12:17:14.731Z,69.57
2023-01-17T12:20:01.584Z,70.67
2023-01-17T12:22:46.341Z,70.47
2023-01-17T12:25:26.703Z,70.60
2023-01-17T12:28:46.119Z,70.10
2023-01-17T12:31:24.412Z,70.00
2023-01-17T12:33:59.656Z,71.33
2023-01-17T12:36:38.161Z,72.70
2023-01-17T12:39:07.755Z,73.01
2023-01-17T12:41:56.547Z,72.93
2023-01-17T12:44:42.459Z,73.36
2023-01-17T12:47:09.255Z,74.21
2023-01-17T12:50:04.285Z,73.47
2023-01-17T12:53:21.092Z,73.51
2023-01-17T12:55:59.524Z,73.56
2023-01-17T12:58:31.000Z,74.05
2023-01-17T13:01:13.489Z,75.23
2023-01-17T13:03:53.613Z,75.39
2023-01-17T13:06:45.267Z,74.69
2023-01-17T13:09:16.826Z,75.32
2023-01-17T13:11:49.613Z,74.93
2023-01-17T13:14:16.386Z,74.58
2023-01-17T13:16:58.493Z,73.60
2023-01-17T13:19:43.638Z,72.92
2023-01-17T13:22:17.352Z,72.44
2023-01-17T13:25:05.132Z,71.93
2023-01-17T13:27:58.021Z,70.77
2023-01-17T13:30:33.086Z,70.64
2023-01-17T13:33:15.253Z,70.14
2023-01-17T13:35:58.073Z,69.54
2023-01-17T13:38:40.016Z,67.86
2023-01-17T13:41:22.411Z,67.02
2023-01-17T13:44:07.447Z,66.54
2023-01-17T13:46:55.561Z,67.35
2023-01-17T13:49:34.061Z,66.83
2023-01-17T13:52:12.014Z,66.69
2023-01-17T13:54:50.252Z,66.00
2023-01-17T13:57:28.510Z,67.65
2023-01-17T13:59:57.231Z,66.97
2023-01-17T14:02:32.611Z,67.08
2023-01-17T14:05:05.025Z,67.26
2023-01-17T14:07:34.395Z,68.62
2023-01-17T14:10:00.805Z,68.87
2023-01-17T14:12:32.336Z,69.55
2023-01-17T14:15:00.961Z,71.44
2023-01-17T14:17:34.990Z,71.08
2023-01-17T14:20:04.264Z,70.99
2023-01-17T14:22:37.902Z,70.74
2023-01-17T14:25:17.367Z,70.87
2023-01-17T14:27:43.623Z,71.03
2023-01-17T14:30:27.833Z,70.95
2023-01-17T14:33:14.103Z,72.02
2023-01-17T14:35:54.647Z,73.21
2023-01-17T14:38:22.594Z,74.25
2023-01-17T14:41:02.959Z,75.10
2023-01-17T14:43:32.908Z,75.02
2023-01-17T14:46:32.312Z,74.70
2023-01-17T14:49:05.679Z,74.19
2023-01-17T14:51:35.556Z,73.92
2023-01-17T14:54:06.172Z,73.53
2023-01-17T14:56:33.267Z,73.47
2023-01-17T14:59:06.981Z,73.45
2023-01-17T15:01:35.569Z,73.17
2023-01-17T15:04:01.973Z,73.16
2023-01-17T15:06:40.377Z,72.68
2023-01-17T15:09:19.368Z,73.02
2023-01-17T15:11:48.009Z,73.32
2023-01-17T15:14:27.585Z,73.54
2023-01-17T15:16:54.397Z,74.88
2023-01-17T15:19:21.877Z,75.69
2023-01-17T15:21:51.598Z,76.37
2023-01-17T15:24:22.506Z,75.74
2023-01-17T15:26:49.133Z,74.82
2023-01-17T15:29:25.975Z,74.23
2023-01-17T15:31:55.405Z,73.69
2023-01-17T15:34:26.989Z,73.05
2023-01-17T15:36:57.852Z,73.29
2023-01-17T15:39:30.173Z,73.14
2023-01-17T15:42:03.239Z,73.38
2023-01-17T15:44:48.545Z,73.43
2023-01-17T15:47:38.825Z,73.44
2023-01-17T15:50:27.531Z,73.50
2023-01-17T15:53:00.851Z,73.62
2023-01-17T15:55:35.022Z,73.23
2023-01-17T15:58:02.565Z,73.32
2023-01-17T16:00:39.153Z,73.69
2023-01-17T16:03:26.136Z,73.89
2023-01-17T16:05:53.953Z,73.36
2023-01-17T16:08:34.093Z,73.02
2023-01-17T16:11:02.768Z,73.44
2023-01-17T16:13:31.703Z,74.40
2023-01-17T16:16:15.630Z,74.31
2023-01-17T16:18:43.008Z,74.76
2023-01-17T16:21:19.997Z,74.92
2023-01-17T16:23:47.049Z,74.87
2023-01-17T16:26:13.815Z,76.21
2023-01-17T16:28:40.178Z,77.36
2023-01-17T16:31:06.545Z,77.79
2023-01-17T16:33:32.981Z,80.32
2023-01-17T16:35:59.356Z,79.19
2023-01-17T16:38:25.938Z,79.27
2023-01-17T16:40:53.984Z,80.21
2023-01-17T16:43:20.412Z,79.68
2023-01-17T16:45:50.273Z,78.97
2023-01-17T16:48:19.168Z,77.63
2023-01-17T16:50:50.249Z,78.58
2023-01-17T16:53:18.167Z,80.54
2023-01-17T16:55:44.701Z,81.25
2023-01-17T16:58:11.251Z,79.76
2023-01-17T17:00:40.069Z,79.54
2023-01-17T17:03:07.064Z,79.89
2023-01-17T17:05:34.064Z,80.08
2023-01-17T17:08:00.930Z,79.67
2023-01-17T17:10:27.713Z,79.53
2023-01-17T17:12:54.114Z,78.82
2023-01-17T17:15:21.404Z,78.76
2023-01-17T17:17:48.023Z,80.63
2023-01-17T17:20:15.359Z,81.60
2023-01-17T17:22:43.936Z,81.81
2023-01-17T17:25:15.647Z,82.37
2023-01-17T17:27:42.147Z,82.07
2023-01-17T17:30:10.117Z,81.59
2023-01-17T17:32:36.467Z,82.47
2023-01-17T17:35:02.995Z,82.01
2023-01-17T17:37:29.397Z,81.32
2023-01-17T17:39:56.860Z,81.50
2023-01-17T17:42:23.426Z,80.56
2023-01-17T17:44:49.802Z,80.67
2023-01-17T17:47:16.324Z,80.23
2023-01-17T17:49:43.351Z,79.13
2023-01-17T17:52:10.046Z,78.46
2023-01-17T17:54:36.634Z,77.30
2023-01-17T17:57:03.374Z,77.37
2023-01-17T17:59:29.968Z,76.85
2023-01-17T18:01:56.945Z,75.98
2023-01-17T18:04:23.342Z,75.78
2023-01-17T18:06:49.680Z,75.64
2023-01-17T18:09:16.291Z,75.19
2023-01-17T18:11:43.548Z,74.75
2023-01-17T18:14:13.490Z,74.56
2023-01-17T18:16:42.546Z,74.94
2023-01-17T18:19:23.058Z,75.32
2023-01-17T18:21:51.193Z,76.12
2023-01-17T18:24:20.706Z,78.67
2023-01-17T18:26:52.763Z,79.54
2023-01-17T18:29:20.984Z,79.47
2023-01-17T18:31:50.108Z,79.31
2023-01-17T18:34:23.736Z,78.93
2023-01-17T18:36:50.815Z,78.08
2023-01-17T18:39:20.103Z,76.74
2023-01-17T18:41:47.186Z,76.47
2023-01-17T18:44:13.568Z,77.60
2023-01-17T18:46:41.846Z,78.11
2023-01-17T18:49:10.993Z,78.27
2023-01-17T18:51:37.492Z,80.43
2023-01-17T18:54:06.895Z,81.55
2023-01-17T18:56:34.120Z,82.63
2023-01-17T18:59:01.351Z,82.83
2023-01-17T19:01:29.870Z,81.87
2023-01-17T19:03:57.852Z,81.09
2023-01-17T19:06:30.350Z,81.56
2023-01-17T19:08:58.504Z,81.88
2023-01-17T19:11:25.657Z,83.14
2023-01-17T19:13:53.243Z,83.72
2023-01-17T19:16:26.293Z,82.98
2023-01-17T19:18:52.802Z,82.66
2023-01-17T19:21:21.457Z,81.84
2023-01-17T19:23:48.579Z,81.43
2023-01-17T19:26:17.104Z,79.90
2023-01-17T19:28:46.041Z,79.51
2023-01-17T19:31:15.667Z,78.54
2023-01-17T19:33:45.552Z,77.70
2023-01-17T19:36:18.396Z,76.46
2023-01-17T19:39:02.991Z,75.57
2023-01-17T19:41:30.704Z,77.00
2023-01-17T19:43:59.295Z,77.49
2023-01-17T19:46:27.272Z,76.72
2023-01-17T19:48:55.078Z,76.16
2023-01-17T19:51:22.294Z,75.34
2023-01-17T19:53:48.649Z,75.57
2023-01-17T19:56:18.032Z,75.81
2023-01-17T19:58:46.134Z,76.07
2023-01-17T20:01:18.292Z,77.54
2023-01-17T20:03:45.997Z,79.18
2023-01-17T20:06:16.703Z,79.93
2023-01-17T20:08:43.489Z,79.86
2023-01-17T20:11:15.505Z,79.64
2023-01-17T20:13:42.332Z,80.13
2023-01-17T20:16:11.120Z,80.65
2023-01-17T20:18:38.353Z,81.76
2023-01-17T20:21:07.082Z,82.06
2023-01-17T20:23:35.380Z,82.15
2023-01-17T20:26:03.338Z,80.83
2023-01-17T20:28:31.076Z,80.11
2023-01-17T20:30:57.411Z,79.21
2023-01-17T20:33:24.180Z,78.13
2023-01-17T20:36:04.856Z,77.19
2023-01-17T20:38:43.656Z,77.15
2023-01-17T20:41:16.999Z,75.87
2023-01-17T20:43:45.353Z,75.50
2023-01-17T20:46:12.211Z,75.16
2023-01-17T20:48:44.725Z,75.55
2023-01-17T20:51:11.878Z,74.98
2023-01-17T20:53:39.733Z,74.81
2023-01-17T20:56:08.623Z,75.41
2023-01-17T20:58:35.214Z,75.02
2023-01-17T21:01:02.099Z,76.21
2023-01-17T21:03:29.308Z,76.44
2023-01-17T21:06:03.741Z,77.51
2023-01-17T21:08:31.226Z,78.12
2023-01-17T21:10:57.625Z,77.79
2023-01-17T21:13:24.496Z,78.67
2023-01-17T21:15:51.902Z,79.86
2023-01-17T21:18:20.072Z,80.99
2023-01-17T21:20:47.307Z,81.40
2023-01-17T21:23:20.248Z,82.13
2023-01-17T21:25:55.418Z,82.72
2023-01-17T21:28:23.784Z,83.24
2023-01-17T21:30:50.456Z,83.25
2023-01-17T21:33:17.637Z,83.61
2023-01-17T21:35:44.745Z,83.27
2023-01-17T21:38:12.603Z,83.14
2023-01-17T21:40:39.380Z,83.82
2023-01-17T21:43:05.770Z,83.68
2023-01-17T21:45:36.639Z,83.23
2023-01-17T21:48:03.086Z,83.09
2023-01-17T21:50:33.580Z,83.49
2023-01-17T21:53:00.264Z,84.00
2023-01-17T21:55:45.016Z,84.23
2023-01-17T21:58:34.763Z,84.55
2023-01-17T22:01:17.547Z,83.38
2023-01-17T22:03:52.714Z,83.80
2023-01-17T22:06:20.434Z,84.89
2023-01-17T22:08:47.440Z,84.36
2023-01-17T22:11:20.262Z,84.61
2023-01-17T22:13:47.213Z,84.86
2023-01-17T22:16:16.082Z,84.37
2023-01-17T22:18:43.348Z,84.49
2023-01-17T22:21:15.589Z,85.13
2023-01-17T22:23:50.311Z,85.39
2023-01-17T22:26:17.168Z,85.00
2023-01-17T22:28:43.999Z,84.04
2023-01-17T22:31:22.742Z,83.65
2023-01-17T22:34:03.662Z,84.03
2023-01-17T22:36:32.246Z,84.04
2023-01-17T22:38:59.003Z,83.49
2023-01-17T22:41:29.567Z,82.96
2023-01-17T22:43:58.622Z,83.09
2023-01-17T22:46:30.755Z,83.61
2023-01-17T22:48:57.855Z,83.24
2023-01-17T22:51:26.205Z,82.65
2023-01-17T22:53:54.797Z,83.49
2023-01-17T22:56:26.581Z,83.61
2023-01-17T22:58:53.378Z,83.30
2023-01-17T23:01:25.388Z,83.64
2023-01-17T23:03:54.468Z,83.58
2023-01-17T23:06:23.492Z,83.22
2023-01-17T23:08:52.017Z,82.16
2023-01-17T23:11:38.739Z,81.43
2023-01-17T23:14:05.769Z,81.07
2023-01-17T23:16:50.670Z,80.63
2023-01-17T23:19:22.663Z,80.41
2023-01-17T23:22:10.700Z,81.52
2023-01-17T23:24:42.901Z,81.15
2023-01-17T23:27:34.047Z,80.56
2023-01-17T23:30:00.388Z,80.53
2023-01-17T23:32:27.232Z,80.85
2023-01-17T23:34:53.733Z,80.02
2023-01-17T23:37:20.107Z,79.66
2023-01-17T23:39:46.454Z,78.76
2023-01-17T23:42:31.381Z,78.70
2023-01-17T23:44:57.712Z,78.34
2023-01-17T23:47:24.091Z,78.43
2023-01-17T23:49:50.463Z,78.87
2023-01-17T23:52:16.900Z,79.15
2023-01-17T23:54:43.251Z,79.89
2023-01-17T23:57:09.599Z,80.21
2023-01-17T23:59:36.135Z,81.12
